Crossville Memorial Whitson Field
KCSV : rendu visible

Aérodrome :











RETROUVEZ-NOUS SUR...

 
LOGIN :

S'inscrire | Disclaimer

   EN    FR    IT 

 









Légende :    VFR   VFR Marginal   IFR   IFR Intensif   IFR Très Intensif
Visi : 
Plafond : 
>= 8 km
>= 3000ft
5 à 8 km
1000 à 3000 ft
1500m à 5 km
500 à 1000 ft
800 à 1500m
200 à 500 ft
< 800m
< 200 ft
Symboles :   Orages  Brouillard  Fortes neiges  Fortes précipitations  Vent > 20 kt






- Altitude de l'aérodrome : 1881 ft


KCSV - Crossville Memorial Whitson Field

DERNIER METAR :
  • 221953Z AUTO 20005KT 10SM CLR 25/13 A3016 RMK AO2 SLP198 T02500128

METARs EXPIRÉS :
  • 221853Z AUTO 09005KT 10SM CLR 25/13 A3019 RMK AO2 SLP206 T02500128
  • 221753Z AUTO 10SM FEW041 24/14 A3021 RMK AO2 SLP214 T02440139 10244 20122 58017

TAF KCSV
Valide du 22 à 18h jusqu'au 23 à 18h UTC


221720Z 2218/2318 16006KT P6SM SCT045
FM231600 19009G15KT P6SM BKN050
FIR KZTL / Amérique du Nord



MET'MAP, la Météo Aéronautique d'un coup d'oeil ! - Copyright ORBIFLY Décembre 2007 - Disclaimer

ORBIFLY MET'MAP TEAM :

Programmation & Développement : Alexandra Zaïnal
Sur une idée originale de : Baudouin d'Aumeries
Assistance à la programmation : Marc-Olivier Méhu
Soutien technique & logistique : Manuel Goepfert

Contact : metmap@orbifly.com




SOURCES & CREDITS :

   NOAA       Earth
Advisory